Wichita, KS (67201)

12:57 PM CST on December 22, 2014 (GMT -0600)
25th PERRY Wichita | Change Station
CLOSE
Current Station
Personal Weather Station
Location: WICHITA, KS
Elevation: 1298 ft
Nearby Weather Stations

Elev 1298 ft 37.73 °N, 97.36 °W | Updated 1 second ago

Mostly Cloudy
Mostly Cloudy
48.9 °F
Feels Like 48 °F
N
4.0
Wind Variable Wind from SE
Gusts 12.0 mph

Today
High -- | Low -- °F
--% Chance of Precip.
Yesterday
High -- | Low -- °F
Precip. -- in
7:41 AM 5:14 PM
New Moon, 1% visible
Pressure 29.56 in
Visibility 10.0 miles
Clouds Mostly Cloudy 2200 ft
Mostly Cloudy 6000 ft
Mostly Cloudy 13000 ft
Windchill 48 °F
Dew Point 42 °F
Humidity 78%
Rainfall 0.02 in
Snow Depth Not available.
UV 2 out of 12
Pollen .10 out of 12
Air Quality Not available.
Flu Activity Not available.
METAR KICT 221753Z 33014G23KT 10SM BKN022 BKN060 BKN130 10/04 A2956

More Conditions Fewer Conditions

Pressure 29.56 in
Visibility 10.0 miles
Clouds Mostly Cloudy 2200 ft
Mostly Cloudy 6000 ft
Mostly Cloudy 13000 ft
Windchill 48 °F
Dew Point 42 °F
Humidity 78%
Rainfall 0.02 in
Snow Depth Not available.
UV 2 out of 12
Pollen .10 out of 12
Air Quality Not available.
Flu Activity Not available.
METAR KICT 221753Z 33014G23KT 10SM BKN022 BKN060 BKN130 10/04 A2956

More Conditions Fewer Conditions

10-Day Weather Forecast

Almanac

Astronomy

Dec. 22, 2014 Rise Set
Actual Time
Civil Twilight
Nautical Twilight
Astronomical Twilight
Moon
Length of Visible Light
Length of Day
Tomorrow will be .
, % of the Moon is Illuminated

Today's Extremes

State Highs State Lows

Community

WunderPhotos

Upload Photos

1,779,687 photos uploaded!

WunderBlogs® & News

Nearby

Air Quality

  Air Quality AQ Index Pollutant
Not available.

Snow Depth

Station Depth Elevation

Earthquake Activity

City Distance Mag. Time & Date
Minimum magnitude displayed is 2.5.

Coastal Water Temperatures

Place Temperature

Nearby Weather Stations